Pavlos Papadopoulos

Scout - Panathinaikos
3 Feb 2028
Donnerstag
Verarbeitung

Persönlichkeit

Anpassungsfähigkeit (1) Ehrgeiz (17) Kontroverse (20) Loyalität (13) Druck (20) Professionalität (6) Fairness (16) Temperament (16)

Profil

Trainerstil Demokratisch
Lizenz Kontinentale Pro
Entschlossenheit 6
Menschenführung 6
Motivation 5
Disziplin 11
Arbeitszufriedenheit
100%
Ermüdung
0%
Rolle Scout
Gehalt 90.5K p/W
Vertrag 14.03.2029

Leistung

Verhalten Gut
Trainingseffektivität
35%
Spielerentwicklung
60%
Verletzungsprävention
40%
Taktische Umsetzung
25%

Letzte Ereignisse

Nahm an einer Scouting-Besprechung teil jetzt
Nahm an einer Scouting-Besprechung teil 7T her
Empfahl ein Transferziel 7T her
Empfahl ein Transferziel 7T her
Nahm an einer Scouting-Besprechung teil 7T her
Legte dem Vorstand ein Dossier vor 7T her
Nimmt an Fortbildung teil 14T her
Nimmt an Fortbildung teil 14T her

Aktuell beobachtet

229
Spieler Verein Status Fähigkeit Vertrauen Beobachtet Zuletzt beobachtet Letzte Stimme
Aaron Leya Iseka OFI Verloren 118 / 109 79% 1 24.01.2028 Befürworten
Danilo Botafogo Aktiv 147 / 140 40% 1 31.12.2027 -
Teboho Mokoena Independiente Verloren 137 / 132 40% 1 31.12.2027 -
Jay Robinson Southampton Aktiv 134 / 137 40% 1 19.12.2027 -
Kutlwano Letlhaku Ajax Cape Town Aktiv 118 / 119 40% 1 19.12.2027 -
Dmitry Pestryakov Dinamo Moscow Aktiv 113 / 122 40% 1 19.12.2027 -
Mateo Silvetti Los Angeles Football Club Aktiv 132 / 122 40% 5 18.12.2027 -
Mikkel Hope Haugesund Aktiv 94 / 114 40% 3 16.12.2027 -
Kauã Elias Anderlecht Aktiv 139 / 136 40% 2 16.12.2027 -
Jan Virgili Club Brugge Aktiv 139 / 144 40% 1 16.12.2027 -
Lion Beqiri Falkenberg Aktiv 101 / 107 40% 2 15.12.2027 -
Santiago López Independiente Aktiv 115 / 124 40% 3 15.12.2027 -
Maren Kefas Plateau United Aktiv 98 / 97 40% 5 12.12.2027 -
Hervin Goyes Deportivo Pasto Aktiv 108 / 114 40% 3 06.12.2027 -
Siyabonga Mabena Chippa United Aktiv 118 / 129 40% 1 06.12.2027 -
Tiziano Dornell Danubio Aktiv 113 / 128 40% 3 05.12.2027 -
Kerwin Vargas Seattle Sounders Aktiv 122 / 126 40% 2 05.12.2027 -
Juan Rocca Gimnasia y Tiro Aktiv 108 / 110 40% 7 05.12.2027 -
Mateo Peralta Danubio Aktiv 107 / 124 40% 3 05.12.2027 -
Tomás Aranda Boca Juniors Aktiv 112 / 122 40% 2 05.12.2027 -
Luca Williams-Barnett Tranmere Rovers Aktiv 119 / 131 40% 2 05.12.2027 -
Shea Lacey Wolverhampton Aktiv 135 / 136 40% 1 03.12.2027 -
Rafael Navarro St. Louis CITY SC Aktiv 124 / 131 40% 3 01.12.2027 -
Duncan McGuire Houston Dynamo Aktiv 124 / 126 40% 2 01.12.2027 -
Agustín Anello Philadelphia Union Aktiv 125 / 129 40% 2 01.12.2027 -
Manuel Ospina Cortulua Aktiv 124 / 132 40% 2 30.11.2027 -
Jefry Zapata Danubio Aktiv 114 / 120 40% 3 30.11.2027 -
Esteban da Silva Racing Aktiv 111 / 115 40% 1 30.11.2027 -
Kévin Denkey FC Cincinnati Aktiv 131 / 125 40% 5 29.11.2027 -
Santiago Sala Güemes Aktiv 118 / 118 40% 4 29.11.2027 -
Fernando Mimbacas Juventud Aktiv 115 / 109 40% 2 29.11.2027 -
Luca Langoni Colorado Rapids Aktiv 131 / 130 40% 6 28.11.2027 -
Max Fenger IFK Goteborg Aktiv 122 / 132 40% 2 28.11.2027 -
Sebastián Ramírez Jaguares Aktiv 111 / 104 40% 1 25.11.2027 -
Armindo Sieb Los Angeles Football Club Aktiv 118 / 118 40% 3 24.11.2027 -
Paulos Abraham Hammarby Aktiv 119 / 115 40% 4 24.11.2027 -
Gustavo Santos Krasnodar Aktiv 126 / 127 40% 1 24.11.2027 -
Mateus Mané Manchester United Aktiv 140 / 141 40% 1 24.11.2027 -
Olívio Tomé Benfica Aktiv 120 / 118 40% 1 23.11.2027 -
Mads Bomholt Stabaek Aktiv 115 / 120 40% 3 22.11.2027 -
Diogo Guzmán Montevideo City Torque Aktiv 113 / 114 40% 7 20.11.2027 -
Santiago Apa All Boys Aktiv 107 / 113 40% 3 19.11.2027 -
Misael Sosa Godoy Cruz Aktiv 116 / 123 40% 3 19.11.2027 -
Alejo Cruz Juventud Aktiv 129 / 132 40% 3 19.11.2027 -
Leonardo Campana New England Revolution Aktiv 132 / 123 40% 1 17.11.2027 -
Bénie Traoré New York City Aktiv 130 / 135 40% 4 14.11.2027 -
Alan Velasco Boca Juniors Aktiv 129 / 141 40% 2 13.11.2027 -
Louis Munteanu DC United Aktiv 138 / 126 40% 4 12.11.2027 -
Luciano Cosentino Wanderers Aktiv 130 / 126 40% 4 12.11.2027 -
Franco Minerva Platense Aktiv 109 / 125 40% 2 11.11.2027 -
Igor Tyjon Doncaster Rovers Aktiv 107 / 122 40% 1 11.11.2027 -
Emiliano Saliadarre Miramar Misiones Aktiv 109 / 106 40% 2 09.11.2027 -
Jáder Valencia Deportes Tolima Aktiv 119 / 114 40% 2 07.11.2027 -
Giovanni Cantizano Rosario Central Aktiv 119 / 119 40% 1 06.11.2027 -
Alexis Cuello San Lorenzo Aktiv 126 / 133 40% 4 04.11.2027 -
Alexander Díaz Deportivo Riestra Aktiv 117 / 113 40% 2 04.11.2027 -
Theo Corbeanu Toronto FC Aktiv 124 / 128 40% 2 03.11.2027 -
Ibrahim Aliyu Houston Dynamo Aktiv 119 / 127 40% 5 02.11.2027 -
Agustín Módica Gimnasia y Esgrima Aktiv 129 / 121 40% 2 01.11.2027 -
Indiana Vassilev Philadelphia Union Aktiv 122 / 117 40% 1 31.10.2027 -
Jesus Ferreira Seattle Sounders Aktiv 141 / 131 40% 1 29.10.2027 -
Luca Martínez Dupuy Godoy Cruz Aktiv 126 / 127 40% 1 27.10.2027 -
Kelvin Flórez Atletico Bucaramanga Aktiv 124 / 120 40% 2 24.10.2027 -
Fredrik Ardraa Stromsgodset Aktiv 106 / 104 40% 1 23.10.2027 -
Augusto Berrondo Tristán Suárez Aktiv 119 / 116 40% 2 22.10.2027 -
Josh Sargent Toronto FC Aktiv 140 / 141 40% 1 22.10.2027 -
Giovanni Baroni Talleres Aktiv 103 / 125 40% 4 15.10.2027 -
Bop Guèye Haugesund Aktiv 107 / 121 40% 2 15.10.2027 -
Mfundo Vilakazi Kaizer Chiefs Aktiv 119 / 113 40% 2 14.10.2027 -
Bautista Tomatis Racing Aktiv 120 / 114 40% 1 11.10.2027 -
Diego García Malmo FF Aktiv 125 / 124 40% 1 10.10.2027 -
Enzo Cabrera Danubio Aktiv 108 / 116 40% 2 09.10.2027 -
Sebastián Cocimano Nueva Chicago Aktiv 112 / 103 40% 3 09.10.2027 -
Rodrigo Villalba River Plate Aktiv 103 / 107 40% 1 08.10.2027 -
Kevin Angulo America de Cali Aktiv 107 / 100 40% 1 08.10.2027 -
Negueba Mirassol Aktiv 126 / 133 40% 1 04.10.2027 -
Nəriman Axundzadə Columbus Crew Aktiv 134 / 117 40% 2 01.10.2027 -
Migouel Alfarela Kifisia Aktiv 123 / 123 42% 1 / 1m 29.09.2027 -
Konstantinos Apostolakis Kifisia Aktiv 111 / 111 42% 1 / 1m 29.09.2027 -
Gerson Sousa Kifisia Aktiv 117 / 117 30% 1 / 1m 29.09.2027 -
Matías Lozano Deportivo Pasto Aktiv 106 / 109 40% 1 29.09.2027 -
Joel Ezra Enyimba Aktiv 88 / 92 40% 1 28.09.2027 -
Luis Otávio Colorado Rapids Aktiv 114 / 120 40% 1 28.09.2027 -
Timofey Simanenka Gomel Aktiv 94 / 106 40% 1 26.09.2027 -
Dylan Cabral Arsenal Aktiv 97 / 95 40% 1 24.09.2027 -
Musa Malik Ikorodu City Aktiv 93 / 101 40% 1 22.09.2027 -
Othmane Maamma Watford Aktiv 129 / 129 40% 8 21.09.2027 -
Cristian Florez Cortulua Aktiv 99 / 108 40% 1 21.09.2027 -
Joel Medina Independiente Aktiv 107 / 113 40% 1 15.09.2027 -
Jardell Kanga Ilves Aktiv 92 / 117 40% 1 15.09.2027 -
Andrés Amaya Fortaleza CEIF Aktiv 118 / 111 40% 1 06.09.2027 -
Matheuzinho Corinthians Aktiv 125 / 141 40% 1 31.08.2027 -
Fredrik Bjørkan Bodo/Glimt Aktiv 128 / 135 40% 1 31.08.2027 -
Rhian Brewster Oxford United Aktiv 129 / 126 40% 2 09.08.2027 -
Fabrizio Cavegn Bristol Rovers Aktiv 112 / 109 40% 1 09.08.2027 -
Santiago Pierotti Lecce Aktiv 134 / 129 40% 1 28.07.2027 -
Cameron Archer Southampton Aktiv 135 / 136 40% 1 28.07.2027 -
Yousef Salech Cardiff City Aktiv 131 / 135 40% 1 12.07.2027 -
Majid Beiranvand Rah Ahan Aktiv 114 / 107 40% 1 03.07.2027 -
Karim Karimi Siah Jamegan Aktiv 116 / 104 40% 1 30.06.2027 -
Josh Coburn Millwall Aktiv 121 / 128 40% 1 30.06.2027 -
Tomás González Piast Aktiv 114 / 124 40% 1 23.06.2027 -
Jovon Makama Norwich City Aktiv 125 / 131 40% 1 23.06.2027 -
David Romero Parma Aktiv 122 / 123 40% 1 22.06.2027 -
Tino Kadewere Aris Thessaloniki Aktiv 116 / 117 76% 1 14.06.2027 Befürworten
Dale Taylor Blackpool Aktiv 110 / 113 40% 1 14.06.2027 -
Dean Henderson Crystal Palace Aktiv 153 / 158 40% 1 30.05.2027 -
Romano Schmid Frosinone Aktiv 146 / 144 40% 4 29.05.2027 -
Callum O'Hare Sheffield United Aktiv 130 / 132 40% 2 27.05.2027 -
Tom Fellows Southampton Aktiv 130 / 129 40% 2 26.05.2027 -
Alex Meret Napoli Aktiv 156 / 155 40% 2 24.05.2027 -
Vladan Kovačević Norwich City Aktiv 119 / 125 40% 1 24.05.2027 -
Finn Azaz Southampton Aktiv 135 / 121 40% 3 23.05.2027 -
Derensili Sanches Fernandes Huddersfield Town Aktiv 125 / 129 40% 7 23.05.2027 -
Jason Knight Bristol City Aktiv 130 / 134 40% 2 23.05.2027 -
James Trafford Leeds United Aktiv 150 / 140 40% 2 22.05.2027 -
Mateusz Kochalski Dynamo Kyiv Aktiv 139 / 131 40% 1 22.05.2027 -
Martin Jedlička Banik Ostrava Aktiv 124 / 124 40% 1 21.05.2027 -
Jonathan Klinsmann Cesena Aktiv 126 / 134 40% 2 20.05.2027 -
Nicolas Schmid Portsmouth Aktiv 126 / 122 40% 3 20.05.2027 -
Michele Cerofolini Bari Aktiv 131 / 133 40% 1 20.05.2027 -
Arijanet Murić Sassuolo Aktiv 138 / 140 40% 3 19.05.2027 -
Kyrylo Fesiun Shakhtar Aktiv 122 / 124 40% 2 19.05.2027 -
Grégoire Coudert Burnley Aktiv 132 / 128 40% 2 19.05.2027 -
Marquinhos APOEL Aktiv 140 / 136 40% 5 18.05.2027 -
Hwang Hee-Chan Wolverhampton Aktiv 134 / 137 40% 2 18.05.2027 -
Tommy Conway Middlesbrough Aktiv 131 / 128 40% 1 18.05.2027 -
Welington Southampton Aktiv 133 / 125 40% 5 17.05.2027 -
Jack Currie Oxford United Aktiv 127 / 123 40% 2 17.05.2027 -
Tariq Lamptey Queens Park Rangers Aktiv 139 / 140 40% 2 17.05.2027 -
Harrison Burrows Sheffield United Aktiv 123 / 130 40% 1 17.05.2027 -
Giorgi Chakvetadze Watford Aktiv 124 / 122 40% 4 16.05.2027 -
Derry Murkin Derby County Aktiv 123 / 132 40% 4 13.05.2027 -
Ronald Swansea City Aktiv 127 / 129 40% 4 13.05.2027 -
Zeidane Inoussa Swansea City Aktiv 118 / 122 40% 1 13.05.2027 -
Jacob Greaves Ipswich Town Aktiv 136 / 132 40% 3 12.05.2027 -
Florentino Luís Ipswich Town Aktiv 140 / 135 40% 3 12.05.2027 -
Sorba Thomas Stoke City Aktiv 131 / 128 40% 3 12.05.2027 -
Tatsuhiro Sakamoto Coventry City Aktiv 127 / 132 40% 1 12.05.2027 -
Habib Diarra Sunderland Aktiv 137 / 144 40% 1 12.05.2027 -
Ethan Galbraith Swansea City Aktiv 129 / 136 40% 6 09.05.2027 -
Max Bird Birmingham Aktiv 130 / 137 40% 3 09.05.2027 -
Richard Koné Queens Park Rangers Aktiv 129 / 123 40% 1 09.05.2027 -
Morgan Whittaker Middlesbrough Aktiv 134 / 127 40% 8 07.05.2027 -
Marcelo Allende Mamelodi Sundowns Aktiv 132 / 129 40% 4 07.05.2027 -
Caleb Yirenkyi Coventry City Aktiv 130 / 139 40% 1 07.05.2027 -
Lewis Bate Stockport County Aktiv 126 / 127 40% 1 05.05.2027 -
Isaiah Jones Luton Town Aktiv 127 / 117 40% 3 01.05.2027 -
Domenico Berardi Sassuolo Aktiv 141 / 146 40% 1 29.04.2027 -
Zian Flemming Ipswich Town Aktiv 135 / 132 40% 1 28.04.2027 -
Callum Brittain Middlesbrough Aktiv 135 / 130 40% 1 28.04.2027 -
Fahad Hassan Al Shabab Aktiv 120 / 122 40% 1 28.04.2027 -
Edoardo Motta Lazio Aktiv 124 / 131 40% 1 28.04.2027 -
Heorhii Bushchan Polissia Aktiv 130 / 126 40% 1 28.04.2027 -
Kazunari Kita Real Sociedad Aktiv 97 / 101 40% 1 27.04.2027 -
Davide Bartesaghi AC Milan Aktiv 132 / 128 40% 1 27.04.2027 -
Sascha Britschgi Padova Aktiv 116 / 125 40% 1 27.04.2027 -
Percy Jali Free State Stars Aktiv 102 / 111 40% 2 26.04.2027 -
Christ Inao Oulaï Fiorentina Aktiv 137 / 140 40% 1 26.04.2027 -
Daniel Iversen Preston Aktiv 129 / 132 40% 1 24.04.2027 -
Egil Selvik Watford Aktiv 128 / 124 40% 2 22.04.2027 -
Ali Ahmed Norwich City Aktiv 121 / 117 40% 1 22.04.2027 -
Nikola Vasilj Al-Diriyah Aktiv 129 / 131 40% 1 19.04.2027 -
Ricardo Velho Aris Thessaloniki Aktiv 128 / 118 40% 1 18.04.2027 -
Lewis Morgan SuperSport United Aktiv 123 / 134 40% 3 17.04.2027 -
Matías Gómez Granada Aktiv 110 / 120 40% 1 17.04.2027 -
Kwadwo Baah Watford Aktiv 125 / 129 40% 5 12.04.2027 -
Georges-Kévin Nkoudou Al-Diriyah Aktiv 129 / 136 40% 5 11.04.2027 -
Milan van Ewijk Mansfield Town Aktiv 127 / 138 40% 2 10.04.2027 -
Ilyas Ansah Hull City Aktiv 137 / 132 40% 1 10.04.2027 -
Kayne Ramsay Charlton Athletic Aktiv 128 / 127 40% 1 10.04.2027 -
Edoardo Bove Watford Aktiv 133 / 124 40% 1 10.04.2027 -
Max Meyer APOEL Aktiv 126 / 118 40% 3 08.04.2027 -
Bertrand Traoré Sunderland Aktiv 131 / 133 40% 1 08.04.2027 -
Adam Bakoune Ospitaletto Aktiv 95 / 104 40% 1 07.04.2027 -
Panagiotis Markou Doxa Aktiv 102 / 92 40% 1 07.04.2027 -
Hélio Varela Maccabi Tel Aviv Aktiv 118 / 116 40% 2 04.04.2027 -
Pelle Mattsson Norwich City Aktiv 128 / 127 40% 1 04.04.2027 -
Mandla Erasmus SuperSport United Aktiv 110 / 116 40% 1 04.04.2027 -
Di'Shon Bernard Sheffield Wednesday Aktiv 120 / 114 40% 1 03.04.2027 -
Adilson Malanda Middlesbrough Aktiv 133 / 129 40% 1 03.04.2027 -
Kwame Poku Queens Park Rangers Aktiv 128 / 127 40% 1 31.03.2027 -
Joe Gelhardt Hull City Aktiv 128 / 139 40% 2 26.03.2027 -
Shea Charles Southampton Aktiv 134 / 144 40% 3 25.03.2027 -
Marquinhos Spartak Moscow Aktiv 128 / 122 40% 3 24.03.2027 -
Scott Twine Bristol City Aktiv 123 / 119 40% 3 24.03.2027 -
Jack McGlynn Stoke City Aktiv 128 / 126 40% 2 21.03.2027 -
Noah Sadiki Sunderland Aktiv 141 / 141 40% 1 21.03.2027 -
Kasey McAteer Ipswich Town Aktiv 136 / 125 40% 1 21.03.2027 -
Sondre Langås Derby County Aktiv 131 / 126 40% 1 19.03.2027 -
Will Smallbone Southampton Aktiv 124 / 129 40% 1 19.03.2027 -
Riley McGree Middlesbrough Aktiv 127 / 137 40% 1 15.03.2027 -
Leif Davis Ipswich Town Aktiv 140 / 137 40% 3 14.03.2027 -
Hany Mukhtar Spezia Aktiv 141 / 133 40% 2 14.03.2027 Mehr Infos nötig
Harry Clarke Preston Aktiv 123 / 127 40% 2 13.03.2027 -
Marlon Gomes Shakhtar Aktiv 134 / 142 40% 1 13.03.2027 -
Anel Ahmedhodžić Burnley Aktiv 134 / 142 40% 1 11.03.2027 -
Jhon Jhon Zenit Aktiv 136 / 132 40% 2 05.03.2027 -
Mikey Johnston West Bromwich Albion Aktiv 120 / 122 40% 1 04.03.2027 -
Nicolò Cambiaghi Bologna Aktiv 137 / 132 40% 1 03.03.2027 -
Mohau Nkota Al-Ettifaq Aktiv 127 / 115 40% 1 02.03.2027 -
Sayfallah Ltaief Cracovia Aktiv 129 / 123 40% 1 02.03.2027 -
Tyrese Campbell Sheffield United Aktiv 123 / 132 40% 1 02.03.2027 -
Sergio Lozano Jagiellonia Aktiv 126 / 129 40% 1 25.02.2027 -
Million Manhoef Stoke City Aktiv 129 / 126 40% 1 25.02.2027 -
Patrik Wålemark Lech Aktiv 133 / 120 40% 1 24.02.2027 -
Josh Tymon Swansea City Aktiv 127 / 129 40% 3 23.02.2027 -
Femi Seriki Sheffield United Aktiv 122 / 128 40% 1 23.02.2027 -
Bradley Tau SuperSport United Aktiv 120 / 127 40% 1 21.02.2027 -
Gustavo Mantuan Zenit Aktiv 128 / 125 40% 1 21.02.2027 -
Petar Stanić Ludogorets Aktiv 134 / 132 40% 1 19.02.2027 -
Alexandr Chernikov Krasnodar Aktiv 126 / 130 40% 1 18.02.2027 -
Matheus Gonçalves Al-Ahli Aktiv 127 / 125 40% 2 16.02.2027 -
Kristoffer Lund Birmingham Aktiv 127 / 123 40% 1 15.02.2027 -
Ki-Jana Hoever Sparta Prague Aktiv 132 / 133 40% 1 12.02.2027 -
Toby Collyer West Bromwich Albion Aktiv 135 / 131 40% 1 07.02.2027 -
Oliver Skipp Leicester City Aktiv 128 / 132 40% 1 07.02.2027 -
Emanuel Aiwu Apollon Aktiv 114 / 123 40% 1 05.02.2027 -
Nazar Voloshyn Dynamo Kyiv Aktiv 130 / 130 40% 1 03.02.2027 -
Will Fish Cardiff City Aktiv 121 / 130 40% 1 02.02.2027 -
Rubens Dinamo Moscow Aktiv 133 / 124 40% 1 02.02.2027 -
Jacques Ekomié Wrexham Aktiv 133 / 132 40% 1 01.02.2027 -
Tomáš Rigo Stoke City Aktiv 136 / 126 40% 1 26.01.2027 -
Isaac Price West Bromwich Albion Aktiv 127 / 129 40% 1 18.01.2027 -
Christian Krasnodar Aktiv 141 / 133 40% 1 11.01.2027 -
Ivan Toney Al-Ahli Aktiv 145 / 151 40% 1 31.12.2026 -
Yusuke Matsuo Esteghlal Aktiv 131 / 133 40% 1 31.12.2026 -
Musa Barrow Al-Khaleej Aktiv 125 / 146 40% 1 01.08.2026 -
Deniz Undav VfB Stuttgart Aktiv 153 / 147 40% 1 01.08.2026 -